sensor_id;sensor_type;location;lat;lon;timestamp;P1;durP1;ratioP1;P2;durP2;ratioP2
71639;SDS011;60912;48.968;10.124;2023-03-23T00:01:51;10.15;;;4.47;;
71639;SDS011;60912;48.968;10.124;2023-03-23T00:04:17;7.77;;;4.40;;
71639;SDS011;60912;48.968;10.124;2023-03-23T00:06:43;7.05;;;4.10;;
71639;SDS011;60912;48.968;10.124;2023-03-23T00:09:10;7.22;;;4.20;;
71639;SDS011;60912;48.968;10.124;2023-03-23T00:11:36;7.47;;;4.00;;
71639;SDS011;60912;48.968;10.124;2023-03-23T00:14:04;7.35;;;3.70;;
71639;SDS011;60912;48.968;10.124;2023-03-23T00:16:30;8.70;;;3.70;;
71639;SDS011;60912;48.968;10.124;2023-03-23T00:18:59;6.47;;;3.55;;
71639;SDS011;60912;48.968;10.124;2023-03-23T00:21:33;9.40;;;3.75;;
71639;SDS011;60912;48.968;10.124;2023-03-23T00:24:00;7.77;;;3.47;;
71639;SDS011;60912;48.968;10.124;2023-03-23T00:26:55;6.53;;;3.47;;
71639;SDS011;60912;48.968;10.124;2023-03-23T00:29:23;5.90;;;3.20;;
71639;SDS011;60912;48.968;10.124;2023-03-23T00:31:49;6.30;;;3.20;;
71639;SDS011;60912;48.968;10.124;2023-03-23T00:34:16;6.35;;;3.30;;
71639;SDS011;60912;48.968;10.124;2023-03-23T00:36:44;6.78;;;3.10;;
71639;SDS011;60912;48.968;10.124;2023-03-23T00:39:11;6.72;;;2.83;;
71639;SDS011;60912;48.968;10.124;2023-03-23T00:41:36;6.57;;;2.83;;
71639;SDS011;60912;48.968;10.124;2023-03-23T00:44:03;7.22;;;2.70;;
71639;SDS011;60912;48.968;10.124;2023-03-23T00:46:28;6.83;;;2.40;;
71639;SDS011;60912;48.968;10.124;2023-03-23T00:48:54;7.40;;;2.40;;
71639;SDS011;60912;48.968;10.124;2023-03-23T00:51:21;3.83;;;2.28;;
71639;SDS011;60912;48.968;10.124;2023-03-23T00:53:47;5.03;;;2.30;;
71639;SDS011;60912;48.968;10.124;2023-03-23T00:56:13;6.03;;;2.33;;
71639;SDS011;60912;48.968;10.124;2023-03-23T00:58:38;5.35;;;2.42;;
71639;SDS011;60912;48.968;10.124;2023-03-23T01:01:04;3.70;;;1.87;;
71639;SDS011;60912;48.968;10.124;2023-03-23T01:03:30;4.47;;;2.22;;
71639;SDS011;60912;48.968;10.124;2023-03-23T01:05:55;5.07;;;2.30;;
71639;SDS011;60912;48.968;10.124;2023-03-23T01:08:21;4.83;;;2.00;;
71639;SDS011;60912;48.968;10.124;2023-03-23T01:10:47;4.53;;;2.10;;
71639;SDS011;60912;48.968;10.124;2023-03-23T01:13:14;4.90;;;2.38;;
71639;SDS011;60912;48.968;10.124;2023-03-23T01:15:40;5.47;;;1.90;;
71639;SDS011;60912;48.968;10.124;2023-03-23T01:18:07;3.90;;;2.00;;
71639;SDS011;60912;48.968;10.124;2023-03-23T01:20:34;4.70;;;2.20;;
71639;SDS011;60912;48.968;10.124;2023-03-23T01:23:00;3.88;;;2.10;;
71639;SDS011;60912;48.968;10.124;2023-03-23T01:25:34;4.90;;;1.70;;
71639;SDS011;60912;48.968;10.124;2023-03-23T01:28:01;4.27;;;1.73;;
71639;SDS011;60912;48.968;10.124;2023-03-23T01:30:27;3.90;;;1.90;;
71639;SDS011;60912;48.968;10.124;2023-03-23T01:32:53;4.10;;;2.10;;
71639;SDS011;60912;48.968;10.124;2023-03-23T01:35:19;4.30;;;1.90;;
71639;SDS011;60912;48.968;10.124;2023-03-23T01:37:45;3.10;;;1.75;;
71639;SDS011;60912;48.968;10.124;2023-03-23T01:40:12;5.70;;;1.80;;
71639;SDS011;60912;48.968;10.124;2023-03-23T01:42:38;3.67;;;1.75;;
71639;SDS011;60912;48.968;10.124;2023-03-23T01:47:48;5.43;;;2.00;;
71639;SDS011;60912;48.968;10.124;2023-03-23T01:50:17;5.60;;;2.10;;
71639;SDS011;60912;48.968;10.124;2023-03-23T01:52:45;3.42;;;1.80;;
71639;SDS011;60912;48.968;10.124;2023-03-23T01:55:11;4.83;;;1.63;;
71639;SDS011;60912;48.968;10.124;2023-03-23T01:57:37;3.45;;;1.80;;
71639;SDS011;60912;48.968;10.124;2023-03-23T02:00:05;3.55;;;1.70;;
71639;SDS011;60912;48.968;10.124;2023-03-23T02:02:40;5.77;;;1.80;;
71639;SDS011;60912;48.968;10.124;2023-03-23T02:05:08;4.85;;;2.10;;
71639;SDS011;60912;48.968;10.124;2023-03-23T02:07:36;4.25;;;1.90;;
71639;SDS011;60912;48.968;10.124;2023-03-23T02:10:02;8.93;;;2.30;;
71639;SDS011;60912;48.968;10.124;2023-03-23T02:12:28;7.78;;;2.15;;
71639;SDS011;60912;48.968;10.124;2023-03-23T02:14:53;4.77;;;1.93;;
71639;SDS011;60912;48.968;10.124;2023-03-23T02:17:24;3.85;;;1.98;;
71639;SDS011;60912;48.968;10.124;2023-03-23T02:25:53;6.80;;;2.03;;
71639;SDS011;60912;48.968;10.124;2023-03-23T02:31:31;3.72;;;1.80;;
71639;SDS011;60912;48.968;10.124;2023-03-23T02:34:17;4.87;;;1.80;;
71639;SDS011;60912;48.968;10.124;2023-03-23T02:37:02;3.55;;;1.75;;
71639;SDS011;60912;48.968;10.124;2023-03-23T02:39:33;4.50;;;2.17;;
71639;SDS011;60912;48.968;10.124;2023-03-23T02:42:05;3.30;;;1.70;;
71639;SDS011;60912;48.968;10.124;2023-03-23T02:44:32;4.20;;;1.77;;
71639;SDS011;60912;48.968;10.124;2023-03-23T02:47:01;4.17;;;1.50;;
71639;SDS011;60912;48.968;10.124;2023-03-23T02:49:31;3.95;;;1.70;;
71639;SDS011;60912;48.968;10.124;2023-03-23T02:52:01;4.32;;;1.70;;
71639;SDS011;60912;48.968;10.124;2023-03-23T02:54:29;3.65;;;1.60;;
71639;SDS011;60912;48.968;10.124;2023-03-23T02:56:55;3.87;;;1.80;;
71639;SDS011;60912;48.968;10.124;2023-03-23T02:59:22;3.65;;;1.67;;
71639;SDS011;60912;48.968;10.124;2023-03-23T03:01:48;4.47;;;1.77;;
71639;SDS011;60912;48.968;10.124;2023-03-23T03:04:18;3.92;;;1.67;;
71639;SDS011;60912;48.968;10.124;2023-03-23T03:06:52;4.35;;;2.03;;
71639;SDS011;60912;48.968;10.124;2023-03-23T03:09:29;3.40;;;1.80;;
71639;SDS011;60912;48.968;10.124;2023-03-23T03:12:02;4.32;;;2.05;;
71639;SDS011;60912;48.968;10.124;2023-03-23T03:14:37;4.85;;;1.80;;
71639;SDS011;60912;48.968;10.124;2023-03-23T03:17:13;3.95;;;1.73;;
71639;SDS011;60912;48.968;10.124;2023-03-23T03:19:52;8.02;;;2.90;;
71639;SDS011;60912;48.968;10.124;2023-03-23T03:22:22;5.70;;;2.40;;
71639;SDS011;60912;48.968;10.124;2023-03-23T03:24:53;5.40;;;2.20;;
71639;SDS011;60912;48.968;10.124;2023-03-23T03:27:22;3.58;;;1.90;;
71639;SDS011;60912;48.968;10.124;2023-03-23T03:29:49;3.70;;;2.00;;
71639;SDS011;60912;48.968;10.124;2023-03-23T03:32:20;5.30;;;1.90;;
71639;SDS011;60912;48.968;10.124;2023-03-23T03:34:49;5.27;;;1.80;;
71639;SDS011;60912;48.968;10.124;2023-03-23T03:37:18;3.58;;;1.50;;
71639;SDS011;60912;48.968;10.124;2023-03-23T03:39:45;6.60;;;1.50;;
71639;SDS011;60912;48.968;10.124;2023-03-23T03:42:11;4.40;;;1.50;;
71639;SDS011;60912;48.968;10.124;2023-03-23T03:44:36;4.47;;;1.70;;
71639;SDS011;60912;48.968;10.124;2023-03-23T03:47:02;5.33;;;1.60;;
71639;SDS011;60912;48.968;10.124;2023-03-23T03:49:27;3.90;;;1.40;;
71639;SDS011;60912;48.968;10.124;2023-03-23T03:51:53;3.10;;;1.53;;
71639;SDS011;60912;48.968;10.124;2023-03-23T03:54:19;3.50;;;1.60;;
71639;SDS011;60912;48.968;10.124;2023-03-23T03:56:44;5.63;;;1.98;;
71639;SDS011;60912;48.968;10.124;2023-03-23T03:59:10;4.73;;;1.90;;
71639;SDS011;60912;48.968;10.124;2023-03-23T04:01:37;3.78;;;1.88;;
71639;SDS011;60912;48.968;10.124;2023-03-23T04:04:03;6.13;;;2.08;;
71639;SDS011;60912;48.968;10.124;2023-03-23T04:06:32;4.95;;;2.40;;
71639;SDS011;60912;48.968;10.124;2023-03-23T04:08:58;3.65;;;1.60;;
71639;SDS011;60912;48.968;10.124;2023-03-23T04:11:24;5.63;;;1.90;;
71639;SDS011;60912;48.968;10.124;2023-03-23T04:13:51;5.18;;;1.48;;
71639;SDS011;60912;48.968;10.124;2023-03-23T04:16:16;6.55;;;1.65;;
71639;SDS011;60912;48.968;10.124;2023-03-23T04:18:42;6.93;;;2.00;;
71639;SDS011;60912;48.968;10.124;2023-03-23T04:21:09;5.93;;;1.73;;
71639;SDS011;60912;48.968;10.124;2023-03-23T04:23:35;2.90;;;1.30;;
71639;SDS011;60912;48.968;10.124;2023-03-23T04:26:02;3.38;;;1.25;;
71639;SDS011;60912;48.968;10.124;2023-03-23T04:28:28;3.33;;;1.33;;
71639;SDS011;60912;48.968;10.124;2023-03-23T04:30:55;4.63;;;1.40;;
71639;SDS011;60912;48.968;10.124;2023-03-23T04:33:24;4.70;;;1.55;;
71639;SDS011;60912;48.968;10.124;2023-03-23T04:35:54;6.57;;;1.50;;
71639;SDS011;60912;48.968;10.124;2023-03-23T04:38:21;5.78;;;1.23;;
71639;SDS011;60912;48.968;10.124;2023-03-23T04:40:49;5.15;;;1.50;;
71639;SDS011;60912;48.968;10.124;2023-03-23T04:43:22;4.07;;;1.45;;
71639;SDS011;60912;48.968;10.124;2023-03-23T04:45:52;5.30;;;1.45;;
71639;SDS011;60912;48.968;10.124;2023-03-23T04:48:21;3.67;;;1.60;;
71639;SDS011;60912;48.968;10.124;2023-03-23T04:50:51;3.58;;;1.48;;
71639;SDS011;60912;48.968;10.124;2023-03-23T04:53:17;3.03;;;1.08;;
71639;SDS011;60912;48.968;10.124;2023-03-23T04:55:45;3.92;;;1.20;;
71639;SDS011;60912;48.968;10.124;2023-03-23T04:58:14;2.97;;;1.50;;
71639;SDS011;60912;48.968;10.124;2023-03-23T05:00:40;2.83;;;1.30;;
71639;SDS011;60912;48.968;10.124;2023-03-23T05:03:08;3.13;;;1.40;;
71639;SDS011;60912;48.968;10.124;2023-03-23T05:05:35;3.75;;;1.25;;
71639;SDS011;60912;48.968;10.124;2023-03-23T05:08:00;3.90;;;1.50;;
71639;SDS011;60912;48.968;10.124;2023-03-23T05:10:25;6.40;;;1.50;;
71639;SDS011;60912;48.968;10.124;2023-03-23T05:12:52;4.03;;;1.37;;
71639;SDS011;60912;48.968;10.124;2023-03-23T05:15:18;3.53;;;1.20;;
71639;SDS011;60912;48.968;10.124;2023-03-23T05:17:43;4.05;;;1.33;;
71639;SDS011;60912;48.968;10.124;2023-03-23T05:20:09;3.87;;;1.40;;
71639;SDS011;60912;48.968;10.124;2023-03-23T05:22:37;5.13;;;1.70;;
71639;SDS011;60912;48.968;10.124;2023-03-23T05:25:03;2.87;;;1.23;;
71639;SDS011;60912;48.968;10.124;2023-03-23T05:27:30;3.83;;;1.55;;
71639;SDS011;60912;48.968;10.124;2023-03-23T05:29:56;4.65;;;1.40;;
71639;SDS011;60912;48.968;10.124;2023-03-23T05:32:23;3.83;;;1.42;;
71639;SDS011;60912;48.968;10.124;2023-03-23T05:35:03;4.22;;;1.42;;
71639;SDS011;60912;48.968;10.124;2023-03-23T05:37:29;3.97;;;1.50;;
71639;SDS011;60912;48.968;10.124;2023-03-23T05:39:57;5.15;;;1.50;;
71639;SDS011;60912;48.968;10.124;2023-03-23T05:42:27;3.65;;;1.38;;
71639;SDS011;60912;48.968;10.124;2023-03-23T05:44:53;4.00;;;1.47;;
71639;SDS011;60912;48.968;10.124;2023-03-23T05:47:18;4.35;;;1.50;;
71639;SDS011;60912;48.968;10.124;2023-03-23T05:49:44;4.23;;;1.37;;
71639;SDS011;60912;48.968;10.124;2023-03-23T05:52:09;3.00;;;1.20;;
71639;SDS011;60912;48.968;10.124;2023-03-23T05:54:35;3.42;;;1.20;;
71639;SDS011;60912;48.968;10.124;2023-03-23T05:57:01;2.87;;;1.20;;
71639;SDS011;60912;48.968;10.124;2023-03-23T05:59:26;3.78;;;1.27;;
71639;SDS011;60912;48.968;10.124;2023-03-23T06:01:52;6.23;;;1.40;;
71639;SDS011;60912;48.968;10.124;2023-03-23T06:04:20;3.45;;;1.30;;
71639;SDS011;60912;48.968;10.124;2023-03-23T06:06:49;3.22;;;1.23;;
71639;SDS011;60912;48.968;10.124;2023-03-23T06:09:17;4.15;;;1.30;;
71639;SDS011;60912;48.968;10.124;2023-03-23T06:11:42;4.43;;;1.33;;
71639;SDS011;60912;48.968;10.124;2023-03-23T06:14:08;3.67;;;1.30;;
71639;SDS011;60912;48.968;10.124;2023-03-23T06:16:33;3.17;;;1.30;;
71639;SDS011;60912;48.968;10.124;2023-03-23T06:18:59;5.73;;;1.40;;
71639;SDS011;60912;48.968;10.124;2023-03-23T06:21:25;2.50;;;1.20;;
71639;SDS011;60912;48.968;10.124;2023-03-23T06:23:52;3.30;;;1.30;;
71639;SDS011;60912;48.968;10.124;2023-03-23T06:26:18;5.47;;;1.50;;
71639;SDS011;60912;48.968;10.124;2023-03-23T06:28:44;6.90;;;1.38;;
71639;SDS011;60912;48.968;10.124;2023-03-23T06:31:10;4.40;;;1.30;;
71639;SDS011;60912;48.968;10.124;2023-03-23T06:33:36;3.93;;;1.40;;
71639;SDS011;60912;48.968;10.124;2023-03-23T06:36:03;4.00;;;1.40;;
71639;SDS011;60912;48.968;10.124;2023-03-23T06:38:29;3.47;;;1.25;;
71639;SDS011;60912;48.968;10.124;2023-03-23T06:40:55;3.53;;;1.30;;
71639;SDS011;60912;48.968;10.124;2023-03-23T06:43:22;4.78;;;1.63;;
71639;SDS011;60912;48.968;10.124;2023-03-23T06:45:48;3.43;;;1.40;;
71639;SDS011;60912;48.968;10.124;2023-03-23T06:48:13;4.63;;;1.60;;
71639;SDS011;60912;48.968;10.124;2023-03-23T06:50:42;4.80;;;1.90;;
71639;SDS011;60912;48.968;10.124;2023-03-23T06:53:09;5.50;;;1.70;;
71639;SDS011;60912;48.968;10.124;2023-03-23T06:55:34;4.97;;;1.40;;
71639;SDS011;60912;48.968;10.124;2023-03-23T06:58:00;4.22;;;1.40;;
71639;SDS011;60912;48.968;10.124;2023-03-23T07:00:26;3.13;;;1.50;;
71639;SDS011;60912;48.968;10.124;2023-03-23T07:02:51;2.77;;;1.13;;
71639;SDS011;60912;48.968;10.124;2023-03-23T07:05:17;4.53;;;1.53;;
71639;SDS011;60912;48.968;10.124;2023-03-23T07:07:42;4.83;;;1.30;;
71639;SDS011;60912;48.968;10.124;2023-03-23T07:10:08;2.77;;;1.30;;
71639;SDS011;60912;48.968;10.124;2023-03-23T07:12:35;3.93;;;1.50;;
71639;SDS011;60912;48.968;10.124;2023-03-23T07:15:01;4.25;;;1.50;;
71639;SDS011;60912;48.968;10.124;2023-03-23T07:17:27;2.92;;;1.30;;
71639;SDS011;60912;48.968;10.124;2023-03-23T07:19:53;3.13;;;1.30;;
71639;SDS011;60912;48.968;10.124;2023-03-23T07:22:19;5.57;;;1.55;;
71639;SDS011;60912;48.968;10.124;2023-03-23T07:24:44;4.03;;;1.70;;
71639;SDS011;60912;48.968;10.124;2023-03-23T07:27:10;8.47;;;1.70;;
71639;SDS011;60912;48.968;10.124;2023-03-23T07:29:35;3.10;;;1.67;;
71639;SDS011;60912;48.968;10.124;2023-03-23T07:32:03;4.20;;;1.67;;
71639;SDS011;60912;48.968;10.124;2023-03-23T07:34:29;5.93;;;1.40;;
71639;SDS011;60912;48.968;10.124;2023-03-23T07:36:55;3.63;;;1.83;;
71639;SDS011;60912;48.968;10.124;2023-03-23T07:39:21;6.30;;;1.50;;
71639;SDS011;60912;48.968;10.124;2023-03-23T07:41:48;4.68;;;1.52;;
71639;SDS011;60912;48.968;10.124;2023-03-23T07:44:13;5.10;;;1.77;;
71639;SDS011;60912;48.968;10.124;2023-03-23T07:46:39;3.97;;;1.60;;
71639;SDS011;60912;48.968;10.124;2023-03-23T07:49:05;4.53;;;1.80;;
71639;SDS011;60912;48.968;10.124;2023-03-23T07:51:30;3.00;;;1.37;;
71639;SDS011;60912;48.968;10.124;2023-03-23T07:53:56;3.47;;;1.45;;
71639;SDS011;60912;48.968;10.124;2023-03-23T07:56:22;3.57;;;1.57;;
71639;SDS011;60912;48.968;10.124;2023-03-23T07:58:47;3.50;;;1.70;;
71639;SDS011;60912;48.968;10.124;2023-03-23T08:01:13;5.47;;;1.60;;
71639;SDS011;60912;48.968;10.124;2023-03-23T08:03:39;3.57;;;1.60;;
71639;SDS011;60912;48.968;10.124;2023-03-23T08:06:04;2.88;;;1.40;;
71639;SDS011;60912;48.968;10.124;2023-03-23T08:08:30;6.18;;;1.80;;
71639;SDS011;60912;48.968;10.124;2023-03-23T08:10:56;6.40;;;1.80;;
71639;SDS011;60912;48.968;10.124;2023-03-23T08:13:22;4.97;;;1.60;;
71639;SDS011;60912;48.968;10.124;2023-03-23T08:15:47;7.00;;;1.70;;
71639;SDS011;60912;48.968;10.124;2023-03-23T08:18:13;5.75;;;1.55;;
71639;SDS011;60912;48.968;10.124;2023-03-23T08:20:39;4.90;;;1.80;;
71639;SDS011;60912;48.968;10.124;2023-03-23T08:23:05;4.03;;;1.63;;
71639;SDS011;60912;48.968;10.124;2023-03-23T08:25:31;3.72;;;1.77;;
71639;SDS011;60912;48.968;10.124;2023-03-23T08:27:57;6.30;;;1.63;;
71639;SDS011;60912;48.968;10.124;2023-03-23T08:30:24;4.23;;;1.40;;
71639;SDS011;60912;48.968;10.124;2023-03-23T08:32:51;4.10;;;1.70;;
71639;SDS011;60912;48.968;10.124;2023-03-23T08:35:17;3.47;;;1.67;;
71639;SDS011;60912;48.968;10.124;2023-03-23T08:37:44;3.50;;;1.35;;
71639;SDS011;60912;48.968;10.124;2023-03-23T08:40:11;7.40;;;1.80;;
71639;SDS011;60912;48.968;10.124;2023-03-23T08:42:39;3.80;;;1.40;;
71639;SDS011;60912;48.968;10.124;2023-03-23T08:45:09;6.43;;;1.40;;
71639;SDS011;60912;48.968;10.124;2023-03-23T08:47:36;3.67;;;1.60;;
71639;SDS011;60912;48.968;10.124;2023-03-23T08:50:03;5.38;;;1.42;;
71639;SDS011;60912;48.968;10.124;2023-03-23T08:52:30;4.00;;;1.48;;
71639;SDS011;60912;48.968;10.124;2023-03-23T08:54:56;3.13;;;1.30;;
71639;SDS011;60912;48.968;10.124;2023-03-23T08:57:22;4.13;;;1.43;;
71639;SDS011;60912;48.968;10.124;2023-03-23T08:59:49;5.35;;;1.55;;
71639;SDS011;60912;48.968;10.124;2023-03-23T09:02:15;2.30;;;1.23;;
71639;SDS011;60912;48.968;10.124;2023-03-23T09:04:41;5.57;;;1.60;;
71639;SDS011;60912;48.968;10.124;2023-03-23T09:07:10;5.10;;;1.40;;
71639;SDS011;60912;48.968;10.124;2023-03-23T09:09:37;3.88;;;1.48;;
71639;SDS011;60912;48.968;10.124;2023-03-23T09:12:07;3.63;;;1.13;;
71639;SDS011;60912;48.968;10.124;2023-03-23T09:14:33;5.47;;;1.50;;
71639;SDS011;60912;48.968;10.124;2023-03-23T09:16:59;3.77;;;1.50;;
71639;SDS011;60912;48.968;10.124;2023-03-23T09:19:26;5.05;;;1.35;;
71639;SDS011;60912;48.968;10.124;2023-03-23T09:21:55;5.20;;;1.75;;
71639;SDS011;60912;48.968;10.124;2023-03-23T09:24:21;4.75;;;1.50;;
71639;SDS011;60912;48.968;10.124;2023-03-23T09:26:47;3.53;;;1.60;;
71639;SDS011;60912;48.968;10.124;2023-03-23T09:29:12;3.63;;;1.60;;
71639;SDS011;60912;48.968;10.124;2023-03-23T09:31:38;3.37;;;1.37;;
71639;SDS011;60912;48.968;10.124;2023-03-23T09:34:06;3.67;;;1.88;;
71639;SDS011;60912;48.968;10.124;2023-03-23T09:36:34;4.78;;;2.00;;
71639;SDS011;60912;48.968;10.124;2023-03-23T09:39:01;3.85;;;1.83;;
71639;SDS011;60912;48.968;10.124;2023-03-23T09:42:30;5.37;;;1.83;;
71639;SDS011;60912;48.968;10.124;2023-03-23T09:44:45;2.85;;;1.45;;
71639;SDS011;60912;48.968;10.124;2023-03-23T09:52:59;2.92;;;1.35;;
71639;SDS011;60912;48.968;10.124;2023-03-23T09:55:27;4.68;;;1.40;;
71639;SDS011;60912;48.968;10.124;2023-03-23T10:03:18;4.83;;;1.57;;
71639;SDS011;60912;48.968;10.124;2023-03-23T10:08:15;3.60;;;1.80;;
71639;SDS011;60912;48.968;10.124;2023-03-23T10:16:03;4.03;;;1.40;;
71639;SDS011;60912;48.968;10.124;2023-03-23T10:21:03;5.40;;;1.50;;
71639;SDS011;60912;48.968;10.124;2023-03-23T10:29:32;5.47;;;1.50;;
71639;SDS011;60912;48.968;10.124;2023-03-23T10:34:35;3.60;;;1.50;;
71639;SDS011;60912;48.968;10.124;2023-03-23T10:39:51;4.70;;;1.58;;
71639;SDS011;60912;48.968;10.124;2023-03-23T10:42:27;2.95;;;1.20;;
71639;SDS011;60912;48.968;10.124;2023-03-23T10:44:59;3.88;;;1.60;;
71639;SDS011;60912;48.968;10.124;2023-03-23T10:47:25;4.80;;;1.70;;
71639;SDS011;60912;48.968;10.124;2023-03-23T10:49:59;6.38;;;1.80;;
71639;SDS011;60912;48.968;10.124;2023-03-23T10:52:37;4.03;;;1.55;;
71639;SDS011;60912;48.968;10.124;2023-03-23T10:57:34;3.47;;;1.20;;
71639;SDS011;60912;48.968;10.124;2023-03-23T11:02:44;2.55;;;1.33;;
71639;SDS011;60912;48.968;10.124;2023-03-23T11:05:22;5.45;;;1.60;;
71639;SDS011;60912;48.968;10.124;2023-03-23T11:07:52;3.60;;;1.50;;
71639;SDS011;60912;48.968;10.124;2023-03-23T11:10:26;4.15;;;1.50;;
71639;SDS011;60912;48.968;10.124;2023-03-23T11:12:59;3.10;;;1.60;;
71639;SDS011;60912;48.968;10.124;2023-03-23T11:17:54;5.70;;;1.40;;
71639;SDS011;60912;48.968;10.124;2023-03-23T11:20:34;4.68;;;1.50;;
71639;SDS011;60912;48.968;10.124;2023-03-23T11:23:10;3.70;;;1.50;;
71639;SDS011;60912;48.968;10.124;2023-03-23T11:25:51;3.95;;;1.50;;
71639;SDS011;60912;48.968;10.124;2023-03-23T11:28:20;3.75;;;1.60;;
71639;SDS011;60912;48.968;10.124;2023-03-23T11:30:46;3.23;;;1.17;;
71639;SDS011;60912;48.968;10.124;2023-03-23T11:33:11;5.25;;;1.50;;
71639;SDS011;60912;48.968;10.124;2023-03-23T11:35:42;5.57;;;1.23;;
71639;SDS011;60912;48.968;10.124;2023-03-23T11:38:11;5.10;;;1.53;;
71639;SDS011;60912;48.968;10.124;2023-03-23T11:40:47;4.68;;;1.60;;
71639;SDS011;60912;48.968;10.124;2023-03-23T11:43:17;3.13;;;1.35;;
71639;SDS011;60912;48.968;10.124;2023-03-23T11:46:05;3.05;;;1.30;;
71639;SDS011;60912;48.968;10.124;2023-03-23T11:48:40;3.22;;;1.30;;
71639;SDS011;60912;48.968;10.124;2023-03-23T11:56:43;5.13;;;1.83;;
71639;SDS011;60912;48.968;10.124;2023-03-23T11:59:11;5.32;;;1.38;;
71639;SDS011;60912;48.968;10.124;2023-03-23T12:14:53;4.00;;;1.60;;
71639;SDS011;60912;48.968;10.124;2023-03-23T12:36:51;4.38;;;1.73;;
71639;SDS011;60912;48.968;10.124;2023-03-23T12:42:54;3.38;;;1.60;;
71639;SDS011;60912;48.968;10.124;2023-03-23T12:48:13;4.28;;;1.70;;
71639;SDS011;60912;48.968;10.124;2023-03-23T12:56:26;8.55;;;1.80;;
71639;SDS011;60912;48.968;10.124;2023-03-23T12:59:07;6.65;;;1.92;;
71639;SDS011;60912;48.968;10.124;2023-03-23T13:01:58;5.90;;;1.80;;
71639;SDS011;60912;48.968;10.124;2023-03-23T13:04:30;3.70;;;1.70;;
71639;SDS011;60912;48.968;10.124;2023-03-23T13:07:02;4.77;;;1.93;;
71639;SDS011;60912;48.968;10.124;2023-03-23T13:12:13;3.60;;;1.60;;
71639;SDS011;60912;48.968;10.124;2023-03-23T13:23:39;3.78;;;1.60;;
71639;SDS011;60912;48.968;10.124;2023-03-23T13:26:10;4.88;;;1.50;;
71639;SDS011;60912;48.968;10.124;2023-03-23T13:28:47;4.20;;;1.63;;
71639;SDS011;60912;48.968;10.124;2023-03-23T13:31:14;3.15;;;1.50;;
71639;SDS011;60912;48.968;10.124;2023-03-23T13:33:45;3.77;;;1.70;;
71639;SDS011;60912;48.968;10.124;2023-03-23T13:36:25;3.38;;;1.75;;
71639;SDS011;60912;48.968;10.124;2023-03-23T13:38:53;3.95;;;1.70;;
71639;SDS011;60912;48.968;10.124;2023-03-23T13:41:19;4.37;;;1.70;;
71639;SDS011;60912;48.968;10.124;2023-03-23T13:43:46;3.35;;;1.70;;
71639;SDS011;60912;48.968;10.124;2023-03-23T13:46:23;3.88;;;1.55;;
71639;SDS011;60912;48.968;10.124;2023-03-23T14:01:52;7.22;;;1.60;;
71639;SDS011;60912;48.968;10.124;2023-03-23T14:04:19;5.43;;;1.60;;
71639;SDS011;60912;48.968;10.124;2023-03-23T14:06:46;3.33;;;1.50;;
71639;SDS011;60912;48.968;10.124;2023-03-23T14:09:16;4.05;;;1.80;;
71639;SDS011;60912;48.968;10.124;2023-03-23T14:14:30;4.07;;;1.70;;
71639;SDS011;60912;48.968;10.124;2023-03-23T14:17:10;3.05;;;1.42;;
71639;SDS011;60912;48.968;10.124;2023-03-23T14:19:39;5.57;;;1.67;;
71639;SDS011;60912;48.968;10.124;2023-03-23T14:22:16;4.88;;;1.70;;
71639;SDS011;60912;48.968;10.124;2023-03-23T14:24:48;4.83;;;1.80;;
71639;SDS011;60912;48.968;10.124;2023-03-23T14:29:43;7.85;;;2.25;;
71639;SDS011;60912;48.968;10.124;2023-03-23T14:32:14;4.80;;;1.97;;
71639;SDS011;60912;48.968;10.124;2023-03-23T14:34:42;4.15;;;2.00;;
71639;SDS011;60912;48.968;10.124;2023-03-23T14:37:10;4.40;;;2.00;;
71639;SDS011;60912;48.968;10.124;2023-03-23T14:39:43;5.05;;;1.83;;
71639;SDS011;60912;48.968;10.124;2023-03-23T14:42:12;3.58;;;1.65;;
71639;SDS011;60912;48.968;10.124;2023-03-23T14:44:45;4.93;;;1.80;;
71639;SDS011;60912;48.968;10.124;2023-03-23T14:52:55;5.40;;;1.80;;
71639;SDS011;60912;48.968;10.124;2023-03-23T14:55:22;4.20;;;1.70;;
71639;SDS011;60912;48.968;10.124;2023-03-23T14:57:49;3.43;;;1.50;;
71639;SDS011;60912;48.968;10.124;2023-03-23T15:02:49;6.75;;;1.40;;
71639;SDS011;60912;48.968;10.124;2023-03-23T15:05:27;4.57;;;1.53;;
71639;SDS011;60912;48.968;10.124;2023-03-23T15:07:59;4.25;;;1.90;;
71639;SDS011;60912;48.968;10.124;2023-03-23T15:10:28;3.15;;;1.75;;
71639;SDS011;60912;48.968;10.124;2023-03-23T15:12:54;6.22;;;2.13;;
71639;SDS011;60912;48.968;10.124;2023-03-23T15:17:59;4.43;;;1.67;;
71639;SDS011;60912;48.968;10.124;2023-03-23T15:20:26;4.80;;;1.98;;
71639;SDS011;60912;48.968;10.124;2023-03-23T15:23:04;4.20;;;1.70;;
71639;SDS011;60912;48.968;10.124;2023-03-23T15:25:32;3.80;;;1.80;;
71639;SDS011;60912;48.968;10.124;2023-03-23T15:30:46;4.03;;;1.50;;
71639;SDS011;60912;48.968;10.124;2023-03-23T15:33:16;3.10;;;1.50;;
71639;SDS011;60912;48.968;10.124;2023-03-23T15:35:49;7.63;;;1.77;;
71639;SDS011;60912;48.968;10.124;2023-03-23T15:41:27;3.05;;;1.77;;
71639;SDS011;60912;48.968;10.124;2023-03-23T15:43:57;5.30;;;1.93;;
71639;SDS011;60912;48.968;10.124;2023-03-23T15:46:35;3.92;;;1.50;;
71639;SDS011;60912;48.968;10.124;2023-03-23T15:51:28;5.78;;;1.77;;
71639;SDS011;60912;48.968;10.124;2023-03-23T15:53:55;3.50;;;1.40;;
71639;SDS011;60912;48.968;10.124;2023-03-23T15:56:21;7.20;;;1.60;;
71639;SDS011;60912;48.968;10.124;2023-03-23T15:58:47;6.65;;;2.13;;
71639;SDS011;60912;48.968;10.124;2023-03-23T16:01:15;4.87;;;1.70;;
71639;SDS011;60912;48.968;10.124;2023-03-23T16:03:45;3.92;;;2.03;;
71639;SDS011;60912;48.968;10.124;2023-03-23T16:06:14;4.18;;;1.90;;
71639;SDS011;60912;48.968;10.124;2023-03-23T16:08:41;4.47;;;1.58;;
71639;SDS011;60912;48.968;10.124;2023-03-23T16:11:10;2.70;;;1.50;;
71639;SDS011;60912;48.968;10.124;2023-03-23T16:13:37;3.22;;;1.55;;
71639;SDS011;60912;48.968;10.124;2023-03-23T16:16:03;4.22;;;1.35;;
71639;SDS011;60912;48.968;10.124;2023-03-23T16:18:31;5.57;;;1.65;;
71639;SDS011;60912;48.968;10.124;2023-03-23T16:20:57;3.80;;;1.47;;
71639;SDS011;60912;48.968;10.124;2023-03-23T16:23:22;6.28;;;1.80;;
71639;SDS011;60912;48.968;10.124;2023-03-23T16:25:48;3.77;;;1.67;;
71639;SDS011;60912;48.968;10.124;2023-03-23T16:28:14;3.08;;;1.65;;
71639;SDS011;60912;48.968;10.124;2023-03-23T16:30:41;4.47;;;2.22;;
71639;SDS011;60912;48.968;10.124;2023-03-23T16:33:07;5.73;;;2.30;;
71639;SDS011;60912;48.968;10.124;2023-03-23T16:35:34;5.28;;;2.40;;
71639;SDS011;60912;48.968;10.124;2023-03-23T16:37:59;4.35;;;2.13;;
71639;SDS011;60912;48.968;10.124;2023-03-23T16:40:25;6.40;;;2.20;;
71639;SDS011;60912;48.968;10.124;2023-03-23T16:42:51;5.03;;;2.08;;
71639;SDS011;60912;48.968;10.124;2023-03-23T16:45:16;5.65;;;2.05;;
71639;SDS011;60912;48.968;10.124;2023-03-23T16:47:43;4.20;;;1.97;;
71639;SDS011;60912;48.968;10.124;2023-03-23T16:50:10;6.32;;;2.03;;
71639;SDS011;60912;48.968;10.124;2023-03-23T16:52:38;4.60;;;2.30;;
71639;SDS011;60912;48.968;10.124;2023-03-23T16:55:04;5.32;;;2.42;;
71639;SDS011;60912;48.968;10.124;2023-03-23T16:57:31;6.25;;;2.30;;
71639;SDS011;60912;48.968;10.124;2023-03-23T17:00:03;5.30;;;1.97;;
71639;SDS011;60912;48.968;10.124;2023-03-23T17:02:30;4.18;;;2.20;;
71639;SDS011;60912;48.968;10.124;2023-03-23T17:04:56;5.75;;;2.65;;
71639;SDS011;60912;48.968;10.124;2023-03-23T17:07:22;6.47;;;2.53;;
71639;SDS011;60912;48.968;10.124;2023-03-23T17:09:48;5.13;;;2.00;;
71639;SDS011;60912;48.968;10.124;2023-03-23T17:12:14;5.35;;;2.10;;